This is the latest recevied weather packets stored in our database for station/object OE-11051. If no packets are shown the sender has not sent any weather packets the latest 10 day(s).
| Time | Temp. | Humidity | Pressure | Rain* | Wind** | Luminosity | Snow |
|---|---|---|---|---|---|---|---|
| 1787922306 | 30° C | 47% | 1009.6 hPa | 0 mm | - | 110 W/m² | - |
| 1787921707 | 31.67° C | 44% | 1008.7 hPa | 0 mm | - | 129 W/m² | - |
| 1787920879 | 32.78° C | 41% | 1008 hPa | 0 mm | - | 580 W/m² | - |
| 1787920507 | 33.33° C | 41% | 1008 hPa | 0 mm | - | 651 W/m² | - |
| 1787919907 | 33.33° C | 42% | 1008.1 hPa | 0 mm | - | 664 W/m² | - |
| 1787919079 | 32.22° C | 43% | 1007.5 hPa | 0 mm | - | 413 W/m² | - |
| 1787918706 | 31.67° C | 44% | 1007.5 hPa | 0 mm | - | 335 W/m² | - |
| 1787918106 | 31.67° C | 45% | 1007.6 hPa | 0 mm | - | 290 W/m² | - |
| 1787917279 | 32.22° C | 44% | 1007.5 hPa | 0 mm | - | 509 W/m² | - |
| 1787916907 | 31.67° C | 44% | 1007.4 hPa | 0 mm | - | 658 W/m² | - |
| 1787916307 | 31.67° C | 44% | 1007.2 hPa | 0 mm | - | 567 W/m² | - |
| 1787915479 | 32.78° C | 43% | 1007.4 hPa | 0 mm | - | 780 W/m² | - |
| 1787915107 | 32.22° C | 44% | 1007.3 hPa | 0 mm | - | 690 W/m² | - |
| 1787914507 | 30.56° C | 48% | 1007.5 hPa | 0 mm | - | 677 W/m² | - |
| 1787913680 | 30.56° C | 47% | 1007.3 hPa | 0 mm | - | 677 W/m² | - |
| 1787913307 | 30° C | 47% | 1007.3 hPa | 0 mm | - | 670 W/m² | - |
| 1787912707 | 30.56° C | 47% | 1007.4 hPa | 0 mm | - | 664 W/m² | - |
| 1787911880 | 30° C | 48% | 1007.6 hPa | 0 mm | - | 651 W/m² | - |
| 1787911507 | 29.44° C | 49% | 1007.3 hPa | 0 mm | - | 645 W/m² | - |
| 1787910906 | 28.89° C | 51% | 1007.1 hPa | 0 mm | - | 632 W/m² | - |
| 1787910080 | 28.89° C | 52% | 1007.5 hPa | 0 mm | - | 625 W/m² | - |
| 1787909706 | 27.78° C | 53% | 1007.7 hPa | 0 mm | - | 471 W/m² | - |
| 1787909107 | 27.78° C | 53% | 1007.9 hPa | 0 mm | - | 542 W/m² | - |
| 1787908279 | 27.22° C | 54% | 1008.3 hPa | 0 mm | - | 580 W/m² | - |
| 1787907907 | 27.22° C | 54% | 1008.9 hPa | 0 mm | - | 548 W/m² | - |
* Rain latest hour (hover to see other rain measurements)
** Current wind speed in m/s (hover to see current wind gust speed)